createdAt,value
2019-03-02T00:01:30.091Z,2.93
2019-03-02T00:03:58.917Z,3.13
2019-03-02T00:06:27.721Z,6.77
2019-03-02T00:08:59.839Z,6.10
2019-03-02T00:11:27.272Z,4.10
2019-03-02T00:13:56.081Z,2.80
2019-03-02T00:16:24.843Z,3.10
2019-03-02T00:18:53.712Z,3.30
2019-03-02T00:21:22.539Z,4.60
2019-03-02T00:23:54.334Z,4.97
2019-03-02T00:26:21.943Z,4.27
2019-03-02T00:28:51.936Z,3.27
2019-03-02T00:31:20.749Z,4.00
2019-03-02T00:33:49.517Z,3.63
2019-03-02T00:36:19.400Z,4.63
2019-03-02T00:38:50.819Z,3.33
2019-03-02T00:41:19.608Z,6.73
2019-03-02T00:43:48.434Z,3.53
2019-03-02T00:46:17.306Z,4.33
2019-03-02T00:48:47.655Z,2.80
2019-03-02T00:51:16.622Z,4.10
2019-03-02T00:53:45.402Z,3.20
2019-03-02T00:56:14.222Z,2.70
2019-03-02T00:58:43.127Z,3.37
2019-03-02T01:01:11.974Z,4.23
2019-03-02T01:03:40.796Z,2.37
2019-03-02T01:06:12.632Z,2.10
2019-03-02T01:08:40.415Z,2.70
2019-03-02T01:11:09.337Z,2.10
2019-03-02T01:13:38.129Z,1.50
2019-03-02T01:16:07.031Z,2.20
2019-03-02T01:18:38.635Z,2.27
2019-03-02T01:21:06.498Z,2.70
2019-03-02T01:23:35.319Z,2.10
2019-03-02T01:26:04.417Z,3.00
2019-03-02T01:28:33.363Z,2.43
2019-03-02T01:31:05.196Z,2.23
2019-03-02T01:33:32.748Z,2.80
2019-03-02T01:36:01.656Z,2.77
2019-03-02T01:38:30.507Z,2.70
2019-03-02T01:40:59.492Z,2.07
2019-03-02T01:43:28.295Z,3.80
2019-03-02T01:45:59.811Z,3.17
2019-03-02T01:48:27.917Z,2.33
2019-03-02T01:50:56.980Z,2.90
2019-03-02T01:53:25.852Z,2.97
2019-03-02T01:55:54.682Z,1.63
2019-03-02T01:58:24.569Z,2.80
2019-03-02T02:00:54.279Z,2.67
2019-03-02T02:03:23.132Z,3.40
2019-03-02T02:05:52.221Z,1.87
2019-03-02T02:08:21.106Z,3.13
2019-03-02T02:13:31.917Z,4.10
2019-03-02T02:16:01.661Z,2.20
2019-03-02T02:18:31.383Z,1.60
2019-03-02T02:21:00.191Z,2.22
2019-03-02T02:23:29.137Z,3.93
2019-03-02T02:25:57.955Z,2.77
2019-03-02T02:28:29.083Z,1.73
2019-03-02T02:31:01.871Z,3.17
2019-03-02T02:33:27.990Z,2.80
2019-03-02T02:35:56.813Z,2.23
2019-03-02T02:38:25.765Z,3.40
2019-03-02T02:40:54.606Z,5.40
2019-03-02T02:43:23.416Z,2.23
2019-03-02T02:45:53.574Z,1.97
2019-03-02T02:48:26.443Z,3.90
2019-03-02T02:50:53.493Z,2.23
2019-03-02T02:53:22.418Z,2.33
2019-03-02T02:55:51.154Z,2.07
2019-03-02T02:58:20.221Z,2.77
2019-03-02T03:00:50.047Z,1.73
2019-03-02T03:03:20.894Z,1.63
2019-03-02T03:05:54.069Z,3.87
2019-03-02T03:08:22.371Z,2.63
2019-03-02T03:10:51.439Z,2.10
2019-03-02T03:13:20.259Z,1.73
2019-03-02T03:15:50.852Z,3.97
2019-03-02T03:20:59.759Z,2.40
2019-03-02T03:23:28.548Z,3.70
2019-03-02T03:25:58.769Z,2.40
2019-03-02T03:28:30.516Z,3.03
2019-03-02T03:30:58.395Z,3.97
2019-03-02T03:33:41.622Z,3.90
2019-03-02T03:35:57.912Z,5.93
2019-03-02T03:38:29.371Z,3.47
2019-03-02T03:41:00.291Z,5.20
2019-03-02T03:43:29.100Z,4.77
2019-03-02T03:45:57.846Z,3.73
2019-03-02T03:48:26.855Z,4.10
2019-03-02T03:50:55.860Z,4.20
2019-03-02T03:53:26.661Z,3.90
2019-03-02T03:56:03.303Z,4.23
2019-03-02T03:58:27.231Z,5.53
2019-03-02T04:00:56.115Z,5.78
2019-03-02T04:03:25.099Z,7.60
2019-03-02T04:05:54.002Z,4.73
2019-03-02T04:08:24.497Z,5.17
2019-03-02T04:13:29.723Z,6.43
2019-03-02T04:15:58.531Z,7.03
2019-03-02T04:19:05.305Z,7.33
2019-03-02T04:21:39.797Z,6.17
2019-03-02T04:26:48.551Z,9.67
2019-03-02T04:29:18.541Z,9.17
2019-03-02T04:31:48.955Z,9.47
2019-03-02T04:34:21.282Z,6.77
2019-03-02T04:36:49.183Z,8.23
2019-03-02T04:39:18.244Z,7.50
2019-03-02T04:41:47.097Z,7.57
2019-03-02T04:44:15.943Z,8.00
2019-03-02T04:46:47.727Z,11.60
2019-03-02T04:49:15.582Z,13.57
2019-03-02T04:51:44.654Z,10.47
2019-03-02T04:54:13.454Z,10.20
2019-03-02T04:56:42.334Z,9.73
2019-03-02T04:59:11.278Z,9.27
2019-03-02T05:01:43.704Z,9.93
2019-03-02T05:04:10.665Z,14.70
2019-03-02T05:06:39.529Z,8.97
2019-03-02T05:09:08.835Z,9.63
2019-03-02T05:11:39.299Z,12.13
2019-03-02T05:14:08.242Z,11.40
2019-03-02T05:16:37.086Z,10.87
2019-03-02T05:19:07.961Z,10.00
2019-03-02T05:21:39.966Z,8.70
2019-03-02T05:24:09.225Z,10.07
2019-03-02T05:26:37.956Z,11.17
2019-03-02T05:29:06.893Z,8.80
2019-03-02T05:34:08.748Z,9.83
2019-03-02T05:36:37.550Z,9.37
2019-03-02T05:39:06.746Z,8.93
2019-03-02T05:41:35.765Z,12.60
2019-03-02T05:44:06.070Z,11.53
2019-03-02T05:46:34.911Z,11.20
2019-03-02T05:49:03.880Z,11.07
2019-03-02T05:51:32.653Z,10.20
2019-03-02T05:54:02.599Z,8.60
2019-03-02T05:56:32.068Z,11.80
2019-03-02T05:59:01.082Z,11.67
2019-03-02T06:01:29.969Z,13.03
2019-03-02T06:03:58.723Z,11.70
2019-03-02T06:06:27.643Z,8.80
2019-03-02T06:08:56.602Z,10.23
2019-03-02T06:11:25.496Z,11.83
2019-03-02T06:13:54.305Z,10.33
2019-03-02T06:16:23.125Z,11.43
2019-03-02T06:18:53.021Z,12.20
2019-03-02T06:21:21.920Z,14.30
2019-03-02T06:23:50.671Z,15.30
2019-03-02T06:26:19.565Z,11.87
2019-03-02T06:28:48.578Z,12.67
2019-03-02T06:31:19.170Z,12.43
2019-03-02T06:33:47.971Z,11.93
2019-03-02T06:36:16.807Z,15.97
2019-03-02T06:39:40.949Z,15.23
2019-03-02T06:42:11.198Z,13.83
2019-03-02T06:44:41.739Z,17.63
2019-03-02T06:47:11.247Z,17.23
2019-03-02T06:49:40.490Z,17.30
2019-03-02T06:52:09.743Z,19.87
2019-03-02T06:54:38.902Z,18.40
2019-03-02T06:57:10.728Z,22.50
2019-03-02T06:59:39.353Z,20.93
2019-03-02T07:02:09.417Z,23.83
2019-03-02T07:04:38.546Z,21.33
2019-03-02T07:07:07.691Z,24.90
2019-03-02T07:09:36.813Z,21.97
2019-03-02T07:12:09.183Z,24.27
2019-03-02T07:14:36.782Z,23.77
2019-03-02T07:17:05.896Z,23.70
2019-03-02T07:19:48.615Z,24.20
2019-03-02T07:22:17.951Z,23.60
2019-03-02T07:24:47.401Z,22.67
2019-03-02T07:27:16.510Z,25.23
2019-03-02T07:29:45.491Z,27.70
2019-03-02T07:32:14.319Z,29.37
2019-03-02T07:34:43.659Z,31.73
2019-03-02T07:37:13.706Z,30.67
2019-03-02T07:39:42.772Z,27.47
2019-03-02T07:42:11.622Z,32.57
2019-03-02T07:44:40.453Z,30.33
2019-03-02T07:47:09.293Z,30.77
2019-03-02T07:49:38.252Z,31.10
2019-03-02T07:52:07.853Z,32.30
2019-03-02T07:54:38.907Z,31.40
2019-03-02T07:57:08.684Z,26.80
2019-03-02T07:59:37.951Z,29.23
2019-03-02T08:02:07.381Z,31.20
2019-03-02T08:04:38.489Z,28.23
2019-03-02T08:07:07.169Z,29.93
2019-03-02T08:09:36.136Z,30.27
2019-03-02T08:12:05.178Z,28.57
2019-03-02T08:14:34.102Z,29.77
2019-03-02T08:17:03.009Z,30.03
2019-03-02T08:19:31.923Z,28.53
2019-03-02T08:22:00.782Z,30.40
2019-03-02T08:24:29.689Z,29.93
2019-03-02T08:26:58.671Z,32.87
2019-03-02T08:29:27.790Z,30.93
2019-03-02T08:31:56.665Z,31.20
2019-03-02T08:34:25.579Z,31.70
2019-03-02T08:36:55.494Z,32.67
2019-03-02T08:39:24.457Z,29.03
2019-03-02T08:41:53.252Z,30.70
2019-03-02T08:44:22.143Z,29.37
2019-03-02T08:46:51.017Z,31.27
2019-03-02T08:49:20.011Z,33.17
2019-03-02T08:51:49.624Z,30.90
2019-03-02T08:54:21.614Z,32.47
2019-03-02T08:56:49.258Z,33.60
2019-03-02T08:59:18.341Z,32.87
2019-03-02T09:01:47.266Z,34.73
2019-03-02T09:04:16.299Z,33.73
2019-03-02T09:06:45.296Z,32.17
2019-03-02T09:09:14.504Z,34.33
2019-03-02T09:11:44.531Z,33.30
2019-03-02T09:14:13.978Z,34.03
2019-03-02T09:16:42.994Z,34.27
2019-03-02T09:19:13.052Z,34.90
2019-03-02T09:21:44.656Z,34.47
2019-03-02T09:24:12.968Z,30.03
2019-03-02T09:26:43.278Z,36.30
2019-03-02T09:29:12.312Z,33.47
2019-03-02T09:31:42.505Z,34.63
2019-03-02T09:34:11.399Z,34.13
2019-03-02T09:36:40.361Z,31.63
2019-03-02T09:39:09.801Z,32.97
2019-03-02T09:41:38.763Z,34.33
2019-03-02T09:44:07.536Z,33.93
2019-03-02T09:46:36.461Z,29.67
2019-03-02T09:49:07.347Z,34.90
2019-03-02T09:51:36.100Z,35.07
2019-03-02T09:54:04.979Z,34.57
2019-03-02T09:56:33.909Z,37.07
2019-03-02T09:59:02.980Z,33.77
2019-03-02T10:01:31.855Z,32.57
2019-03-02T10:04:03.058Z,36.73
2019-03-02T10:06:31.246Z,31.03
2019-03-02T10:09:00.253Z,33.60
2019-03-02T10:11:29.056Z,33.93
2019-03-02T10:13:57.897Z,39.73
2019-03-02T10:16:26.690Z,32.63
2019-03-02T10:18:55.679Z,38.53
2019-03-02T10:21:24.500Z,35.23
2019-03-02T10:23:53.312Z,36.90
2019-03-02T10:26:22.182Z,32.27
2019-03-02T10:28:52.207Z,31.47
2019-03-02T10:31:21.106Z,32.83
2019-03-02T10:33:49.902Z,30.33
2019-03-02T10:36:18.746Z,31.53
2019-03-02T10:38:47.775Z,31.13
2019-03-02T10:41:20.165Z,30.50
2019-03-02T10:43:47.157Z,32.50
2019-03-02T10:46:16.117Z,33.17
2019-03-02T10:48:44.942Z,29.07
2019-03-02T10:51:13.854Z,30.90
2019-03-02T10:53:42.701Z,30.13
2019-03-02T10:56:11.682Z,30.10
2019-03-02T10:58:40.799Z,28.70
2019-03-02T11:01:09.625Z,31.33
2019-03-02T11:03:38.578Z,29.47
2019-03-02T11:06:23.425Z,30.13
2019-03-02T11:09:13.134Z,26.90
2019-03-02T11:12:06.864Z,27.63
2019-03-02T11:14:54.007Z,33.47
2019-03-02T11:17:48.075Z,27.67
2019-03-02T11:20:34.580Z,30.27
2019-03-02T11:23:37.977Z,30.23
2019-03-02T11:26:24.711Z,27.93
2019-03-02T11:29:01.449Z,27.63
2019-03-02T11:31:48.354Z,30.13
2019-03-02T11:34:36.252Z,27.03
2019-03-02T11:37:21.902Z,29.30
2019-03-02T11:40:01.649Z,27.07
2019-03-02T11:42:55.787Z,29.32
2019-03-02T11:45:31.291Z,25.57
2019-03-02T11:48:20.337Z,27.63
2019-03-02T11:51:00.831Z,25.43
2019-03-02T11:53:52.955Z,26.73
2019-03-02T11:56:56.124Z,26.43
2019-03-02T11:59:45.399Z,22.87
2019-03-02T12:02:31.644Z,22.83
2019-03-02T12:05:17.961Z,24.27
2019-03-02T12:10:55.604Z,22.22
2019-03-02T12:13:37.003Z,19.93
2019-03-02T12:16:22.237Z,19.80
2019-03-02T12:19:05.253Z,19.80
2019-03-02T12:21:42.768Z,18.47
2019-03-02T12:24:27.212Z,19.97
2019-03-02T12:27:23.959Z,16.27
2019-03-02T12:30:14.885Z,17.87
2019-03-02T12:33:08.610Z,21.17
2019-03-02T12:35:54.729Z,15.93
2019-03-02T12:38:31.050Z,15.77
2019-03-02T12:41:21.812Z,21.63
2019-03-02T12:44:12.392Z,14.93
2019-03-02T12:47:03.217Z,15.63
2019-03-02T12:49:57.160Z,20.13
2019-03-02T12:52:44.031Z,20.47
2019-03-02T12:55:30.721Z,19.27
2019-03-02T12:58:07.700Z,20.53
2019-03-02T13:00:48.588Z,13.57
2019-03-02T13:03:51.925Z,15.40
2019-03-02T13:06:43.036Z,19.77
2019-03-02T13:09:25.271Z,16.13
2019-03-02T13:12:28.155Z,14.93
2019-03-02T13:15:33.864Z,18.50
2019-03-02T13:18:25.147Z,21.60
2019-03-02T13:21:11.795Z,20.70
2019-03-02T13:24:07.872Z,20.00
2019-03-02T13:26:54.555Z,19.03
2019-03-02T13:29:40.967Z,21.57
2019-03-02T13:32:19.914Z,19.33
2019-03-02T13:35:05.061Z,20.93
2019-03-02T13:37:53.128Z,18.80
2019-03-02T13:40:48.307Z,19.27
2019-03-02T13:43:35.154Z,23.77
2019-03-02T13:46:26.194Z,22.50
2019-03-02T13:49:10.488Z,21.03
2019-03-02T13:51:55.432Z,21.83
2019-03-02T13:54:33.867Z,22.40
2019-03-02T13:57:23.597Z,17.77
2019-03-02T14:00:17.407Z,22.27
2019-03-02T14:03:15.119Z,20.27
2019-03-02T14:06:03.122Z,21.20
2019-03-02T14:08:39.847Z,19.63
2019-03-02T14:11:27.136Z,19.63
2019-03-02T14:14:33.400Z,21.53
2019-03-02T14:17:11.862Z,20.73
2019-03-02T14:19:48.388Z,16.50
2019-03-02T14:22:35.218Z,20.83
2019-03-02T14:25:35.874Z,21.07
2019-03-02T14:28:16.571Z,19.87
2019-03-02T14:31:19.636Z,24.27
2019-03-02T14:34:03.013Z,19.20
2019-03-02T14:36:48.569Z,20.30
2019-03-02T14:39:42.515Z,20.17
2019-03-02T14:42:33.545Z,22.20
2019-03-02T14:45:20.880Z,23.50
2019-03-02T14:48:14.846Z,22.43
2019-03-02T14:51:01.774Z,20.53
2019-03-02T14:53:37.928Z,20.70
2019-03-02T14:56:26.916Z,21.60
2019-03-02T14:59:21.288Z,23.97
2019-03-02T15:02:17.881Z,20.53
2019-03-02T15:05:15.989Z,23.10
2019-03-02T15:08:03.908Z,19.10
2019-03-02T15:10:50.478Z,19.30
2019-03-02T15:13:50.657Z,21.43
2019-03-02T15:16:41.298Z,18.50
2019-03-02T15:19:31.942Z,21.83
2019-03-02T15:22:20.438Z,21.68
2019-03-02T15:25:14.067Z,21.87
2019-03-02T15:28:17.099Z,16.07
2019-03-02T15:31:07.833Z,16.03
2019-03-02T15:33:43.359Z,13.90
2019-03-02T15:36:30.099Z,16.97
2019-03-02T15:39:25.647Z,12.97
2019-03-02T15:42:12.343Z,13.67
2019-03-02T15:45:12.673Z,13.20
2019-03-02T15:47:55.071Z,13.50
2019-03-02T15:50:45.982Z,14.73
2019-03-02T15:53:22.754Z,14.33
2019-03-02T15:56:09.274Z,17.27
2019-03-02T15:59:15.801Z,13.67
2019-03-02T16:02:12.524Z,13.10
2019-03-02T16:04:49.452Z,13.67
2019-03-02T16:07:23.718Z,14.10
2019-03-02T16:10:17.582Z,13.30
2019-03-02T16:13:12.047Z,14.80
2019-03-02T16:16:08.855Z,13.23
2019-03-02T16:18:55.846Z,13.43
2019-03-02T16:21:36.790Z,13.23
2019-03-02T16:24:24.820Z,13.23
2019-03-02T16:27:26.109Z,12.37
2019-03-02T16:30:20.385Z,13.37
2019-03-02T16:33:07.271Z,12.23
2019-03-02T16:36:10.473Z,13.50
2019-03-02T16:39:07.124Z,13.70
2019-03-02T16:41:49.724Z,14.57
2019-03-02T16:44:39.318Z,12.83
2019-03-02T16:47:16.501Z,14.10
2019-03-02T16:50:16.564Z,10.73
2019-03-02T16:53:01.450Z,10.90
2019-03-02T16:55:42.084Z,11.80
2019-03-02T16:58:38.507Z,10.27
2019-03-02T17:01:31.771Z,9.70
2019-03-02T17:04:15.250Z,8.73
2019-03-02T17:06:56.699Z,8.47
2019-03-02T17:09:48.850Z,8.67
2019-03-02T17:12:30.466Z,8.80
2019-03-02T17:15:18.920Z,7.67
2019-03-02T17:18:07.179Z,7.67
2019-03-02T17:21:01.279Z,8.67
2019-03-02T17:23:42.617Z,9.73
2019-03-02T17:26:17.141Z,11.53
2019-03-02T17:29:14.115Z,8.23
2019-03-02T17:32:04.187Z,7.67
2019-03-02T17:34:47.821Z,8.30
2019-03-02T17:37:44.991Z,8.50
2019-03-02T17:40:31.659Z,9.77
2019-03-02T17:43:18.424Z,8.63
2019-03-02T17:45:57.458Z,8.57
2019-03-02T17:48:54.927Z,9.00
2019-03-02T17:51:44.027Z,9.37
2019-03-02T17:54:42.308Z,9.73
2019-03-02T17:57:22.478Z,9.30
2019-03-02T18:00:10.594Z,10.10
2019-03-02T18:03:18.398Z,9.40
2019-03-02T18:06:12.652Z,9.67
2019-03-02T18:08:49.818Z,10.87
2019-03-02T18:11:40.867Z,11.87
2019-03-02T18:14:20.070Z,11.43
2019-03-02T18:17:05.481Z,12.80
2019-03-02T18:19:34.333Z,12.20
2019-03-02T18:22:06.422Z,12.50
2019-03-02T18:24:35.452Z,12.33
2019-03-02T18:27:04.768Z,15.60
2019-03-02T18:29:33.942Z,15.70
2019-03-02T18:32:02.953Z,13.40
2019-03-02T18:34:31.878Z,14.03
2019-03-02T18:37:00.754Z,14.27
2019-03-02T18:39:29.641Z,14.93
2019-03-02T18:41:58.496Z,14.97
2019-03-02T18:44:27.943Z,14.83
2019-03-02T18:46:56.863Z,12.77
2019-03-02T18:49:47.454Z,13.17
2019-03-02T18:52:30.502Z,14.00
2019-03-02T18:54:59.475Z,12.77
2019-03-02T18:57:28.422Z,13.87
2019-03-02T18:59:57.415Z,12.63
2019-03-02T19:02:26.371Z,12.73
2019-03-02T19:04:55.265Z,9.63
2019-03-02T19:07:24.238Z,9.40
2019-03-02T19:09:53.276Z,10.53
2019-03-02T19:12:22.312Z,13.17
2019-03-02T19:14:53.856Z,12.63
2019-03-02T19:17:21.748Z,11.40
2019-03-02T19:19:50.971Z,11.97
2019-03-02T19:22:19.837Z,9.07
2019-03-02T19:24:48.725Z,10.53
2019-03-02T19:27:17.621Z,9.27
2019-03-02T19:29:46.607Z,11.30
2019-03-02T19:32:15.536Z,10.30
2019-03-02T19:34:44.352Z,9.13
2019-03-02T19:37:13.349Z,10.77
2019-03-02T19:39:43.262Z,10.43
2019-03-02T19:42:12.073Z,14.50
2019-03-02T19:44:40.937Z,12.10
2019-03-02T19:47:10.696Z,12.15
2019-03-02T19:49:39.671Z,11.57
2019-03-02T19:52:08.514Z,13.13
2019-03-02T19:54:37.338Z,14.80
2019-03-02T19:57:06.262Z,15.73
2019-03-02T19:59:36.276Z,10.30
2019-03-02T20:02:05.467Z,18.00
2019-03-02T20:04:34.518Z,13.20
2019-03-02T20:07:03.315Z,14.83
2019-03-02T20:09:32.246Z,14.13
2019-03-02T20:12:01.227Z,18.30
2019-03-02T20:14:30.070Z,17.00
2019-03-02T20:16:58.918Z,15.10
2019-03-02T20:19:27.822Z,12.23
2019-03-02T20:21:56.877Z,13.17
2019-03-02T20:24:25.679Z,12.83
2019-03-02T20:26:54.558Z,16.43
2019-03-02T20:29:23.552Z,17.43
2019-03-02T20:31:52.435Z,14.27
2019-03-02T20:34:21.264Z,14.80
2019-03-02T20:36:50.375Z,21.03
2019-03-02T20:39:19.441Z,16.20
2019-03-02T20:41:48.444Z,12.20
2019-03-02T20:44:17.335Z,14.13
2019-03-02T20:46:46.132Z,18.07
2019-03-02T20:49:15.109Z,18.30
2019-03-02T20:51:44.243Z,13.03
2019-03-02T20:54:13.155Z,14.47
2019-03-02T20:56:42.096Z,18.03
2019-03-02T20:59:11.251Z,15.53
2019-03-02T21:01:40.138Z,16.57
2019-03-02T21:04:11.219Z,11.60
2019-03-02T21:06:39.789Z,13.73
2019-03-02T21:09:08.816Z,13.57
2019-03-02T21:11:37.699Z,13.10
2019-03-02T21:14:06.680Z,16.00
2019-03-02T21:16:35.546Z,16.30
2019-03-02T21:19:04.736Z,15.03
2019-03-02T21:21:33.549Z,18.70
2019-03-02T21:24:02.356Z,15.30
2019-03-02T21:26:31.206Z,15.53
2019-03-02T21:29:00.191Z,13.83
2019-03-02T21:31:29.383Z,15.13
2019-03-02T21:36:31.667Z,17.47
2019-03-02T21:39:00.766Z,17.30
2019-03-02T21:41:29.551Z,15.60
2019-03-02T21:43:58.386Z,15.43
2019-03-02T21:46:27.262Z,16.97
2019-03-02T21:48:56.340Z,15.10
2019-03-02T21:51:25.499Z,22.67
2019-03-02T21:53:54.478Z,15.73
2019-03-02T21:56:23.316Z,17.57
2019-03-02T21:58:52.309Z,14.60
2019-03-02T22:01:21.098Z,18.47
2019-03-02T22:03:49.982Z,15.80
2019-03-02T22:06:18.793Z,19.27
2019-03-02T22:08:47.751Z,12.80
2019-03-02T22:11:16.657Z,18.50
2019-03-02T22:13:45.499Z,19.57
2019-03-02T22:16:14.329Z,13.77
2019-03-02T22:18:43.368Z,20.17
2019-03-02T22:21:12.231Z,18.80
2019-03-02T22:23:41.126Z,13.30
2019-03-02T22:26:10.132Z,14.17
2019-03-02T22:28:39.151Z,16.10
2019-03-02T22:31:08.016Z,12.73
2019-03-02T22:33:36.862Z,18.43
2019-03-02T22:36:05.801Z,16.40
2019-03-02T22:38:34.672Z,11.77
2019-03-02T22:41:03.588Z,19.13
2019-03-02T22:43:32.431Z,14.37
2019-03-02T22:46:01.271Z,15.70
2019-03-02T22:48:30.279Z,22.27
2019-03-02T22:50:59.243Z,11.43
2019-03-02T22:53:28.109Z,12.57
2019-03-02T22:55:56.971Z,16.13
2019-03-02T22:58:33.940Z,13.63
2019-03-02T23:01:27.005Z,14.70
2019-03-02T23:03:56.021Z,14.27
2019-03-02T23:06:24.826Z,12.33
2019-03-02T23:08:53.661Z,19.13
2019-03-02T23:11:22.677Z,10.77
2019-03-02T23:13:51.469Z,15.83
2019-03-02T23:16:20.277Z,11.93
2019-03-02T23:18:49.273Z,13.13
2019-03-02T23:21:18.248Z,15.23
2019-03-02T23:23:47.084Z,14.53
2019-03-02T23:26:15.938Z,13.23
2019-03-02T23:28:44.868Z,15.30
2019-03-02T23:31:13.700Z,11.17
2019-03-02T23:33:42.553Z,16.17
2019-03-02T23:36:11.405Z,15.53
2019-03-02T23:38:40.445Z,11.30
2019-03-02T23:41:09.278Z,16.20
2019-03-02T23:43:38.273Z,13.50
2019-03-02T23:46:07.516Z,12.93
2019-03-02T23:48:36.513Z,13.17
2019-03-02T23:51:05.417Z,16.87
2019-03-02T23:53:34.218Z,12.33
2019-03-02T23:56:03.185Z,8.97
2019-03-02T23:58:32.171Z,11.27
